Nova Trento, Brazil
Current Conditions -  °F | °C
As of 2:00 PM on Saturday 20 Dec 2014 (Local Time) from SBNF Reporting Station
Scattered Clouds Scattered Clouds  
Wind Chill: 84°   Ceiling: Unl
Heat Index: 94°   Visibility: 6mi
Dew Point: 77°   Wind: 15mph
Humidity: 79%   Direction: 60°ENE
Pressure: 29.71"   Gusts: NA
Location:  27.29°S, 48.93°W
Report Text: SBNF 201600Z 06013KT 9999 FEW030 SCT100 29/25 Q1006
Loading
Personal Weather Stations






























Interactive Weather Map New forecast layout! Learn more

10-Day Weather Forecast

Advertisements
Track Severe Weather on mobile